Time;durP1;ratioP1;P1;durP2;ratioP2;P2;SDS_P1;SDS_P2;PMS_P1;PMS_P2;Temp;Humidity;BMP_temperature;BMP_pressure;BME280_temperature;BME280_humidity;BME280_pressure;Samples;Min_cycle;Max_cycle;Signal;HPM_P1;HPM_P2
2023/05/16 00:01:43;;;;;;;16.15;10.43;;;;;;;13.28;75.46;94497.03;5011151;28;20028;-71
2023/05/16 00:04:08;;;;;;;13.30;10.50;;;;;;;13.24;75.75;94504.31;5031189;28;20029;-72
2023/05/16 00:06:34;;;;;;;12.02;10.10;;;;;;;13.21;75.74;94494.19;5029619;28;20507;-72
2023/05/16 00:09:00;;;;;;;13.75;11.05;;;;;;;13.14;75.92;94500.94;5030584;28;20553;-72
2023/05/16 00:11:27;;;;;;;15.20;12.05;;;;;;;12.98;76.08;94501.63;5029507;28;20133;-72
2023/05/16 00:13:53;;;;;;;14.60;11.68;;;;;;;13.04;76.19;94492.38;5031752;28;20021;-72
2023/05/16 00:16:20;;;;;;;13.43;10.85;;;;;;;13.15;75.79;94489.56;5040572;28;20056;-72
2023/05/16 00:18:46;;;;;;;16.40;11.23;;;;;;;13.07;75.48;94471.25;5013131;28;20025;-72
2023/05/16 00:21:11;;;;;;;13.23;9.50;;;;;;;13.26;75.55;94493.72;5026830;28;20040;-72
2023/05/16 00:23:37;;;;;;;11.38;9.77;;;;;;;13.30;75.69;94500.31;4996540;28;20038;-72
2023/05/16 00:26:03;;;;;;;11.38;10.13;;;;;;;13.12;76.00;94482.00;5030706;28;20036;-72
2023/05/16 00:28:29;;;;;;;14.00;10.65;;;;;;;13.09;76.39;94477.09;5030585;28;20029;-72
2023/05/16 00:30:54;;;;;;;11.40;9.95;;;;;;;13.07;75.95;94468.63;5030320;28;20033;-72
2023/05/16 00:33:20;;;;;;;14.27;10.32;;;;;;;13.00;76.93;94483.22;5023844;28;20033;-72
2023/05/16 00:35:45;;;;;;;12.38;10.50;;;;;;;13.13;76.77;94488.88;5029459;28;20025;-73
2023/05/16 00:38:11;;;;;;;13.60;10.43;;;;;;;13.09;76.59;94488.38;5044796;28;20025;-72
2023/05/16 00:40:37;;;;;;;12.40;10.45;;;;;;;13.04;76.75;94477.56;5049236;28;20025;-72
2023/05/16 00:43:02;;;;;;;11.38;10.18;;;;;;;13.00;76.97;94481.44;5032629;28;20025;-72
2023/05/16 00:45:28;;;;;;;11.38;10.25;;;;;;;13.11;76.87;94477.78;5048072;28;20434;-72
2023/05/16 00:47:53;;;;;;;13.10;10.25;;;;;;;13.03;77.08;94472.50;5031250;28;20435;-72
2023/05/16 00:50:19;;;;;;;12.32;11.00;;;;;;;12.99;76.45;94442.50;5040246;28;20488;-72
2023/05/16 00:52:44;;;;;;;11.75;10.55;;;;;;;13.05;76.32;94449.72;5029188;28;20029;-72
2023/05/16 00:55:10;;;;;;;13.55;10.77;;;;;;;13.20;76.29;94458.63;5029200;28;20041;-72
2023/05/16 00:57:39;;;;;;;10.40;9.30;;;;;;;13.06;76.37;94449.53;5025429;28;20147;-72
2023/05/16 01:00:05;;;;;;;12.20;10.32;;;;;;;13.09;76.72;94458.84;5049428;28;20025;-72
2023/05/16 01:02:31;;;;;;;12.98;10.80;;;;;;;12.86;76.69;94429.81;5015489;28;20033;-71
2023/05/16 01:04:56;;;;;;;13.45;11.02;;;;;;;13.04;76.87;94453.25;5033885;28;20162;-72
2023/05/16 01:07:21;;;;;;;14.60;11.27;;;;;;;13.01;76.64;94459.63;5027669;28;20473;-72
2023/05/16 01:09:47;;;;;;;12.98;10.73;;;;;;;13.04;76.70;94454.09;4995421;28;20041;-72
2023/05/16 01:12:36;;;;;;;13.15;10.80;;;;;;;13.04;76.90;94463.69;5030964;28;20568;-72
2023/05/16 01:15:08;;;;;;;15.50;11.95;;;;;;;12.97;76.64;94453.88;5033043;28;20025;-72
2023/05/16 01:17:59;;;;;;;18.42;10.70;;;;;;;12.91;77.26;94454.47;5032615;28;20502;-72
2023/05/16 01:20:41;;;;;;;11.82;10.60;;;;;;;12.87;76.54;94421.88;5032691;28;20030;-72
2023/05/16 01:23:18;;;;;;;11.60;9.93;;;;;;;13.10;76.58;94448.28;5036243;28;20030;-72
2023/05/16 01:25:44;;;;;;;13.20;11.63;;;;;;;13.18;76.50;94452.75;5049088;28;20040;-72
2023/05/16 01:28:09;;;;;;;14.45;11.30;;;;;;;13.20;75.75;94440.34;5053686;28;20028;-72
2023/05/16 01:30:37;;;;;;;12.70;10.98;;;;;;;13.13;75.75;94436.72;5050302;28;20033;-72
2023/05/16 01:33:03;;;;;;;13.98;11.45;;;;;;;13.17;75.52;94449.31;5016207;28;20573;-72
2023/05/16 01:35:29;;;;;;;13.30;11.40;;;;;;;13.23;75.35;94426.19;5047965;28;20044;-72
2023/05/16 01:38:09;;;;;;;12.55;11.02;;;;;;;13.26;75.14;94426.75;5035668;28;20031;-72
2023/05/16 01:40:57;;;;;;;14.88;11.68;;;;;;;13.26;75.05;94418.09;5016876;28;20673;-72
2023/05/16 01:43:42;;;;;;;14.63;11.77;;;;;;;13.27;75.26;94412.72;5016326;28;20087;-72
2023/05/16 01:46:13;;;;;;;12.75;10.13;;;;;;;13.15;75.52;94391.28;5014928;28;20029;-72
2023/05/16 01:48:41;;;;;;;;;;;;;;;13.25;76.07;94409.41;5032609;28;20491;-72
2023/05/16 01:51:07;;;;;;;14.18;10.23;;;;;;;13.17;76.12;94402.34;5032003;28;19917;-72
2023/05/16 01:53:35;;;;;;;11.45;10.25;;;;;;;13.01;76.57;94417.06;5035212;28;20410;-72
2023/05/16 01:56:01;;;;;;;11.57;10.40;;;;;;;13.02;76.81;94403.06;5018967;28;20040;-72
2023/05/16 01:58:27;;;;;;;14.77;11.15;;;;;;;13.06;76.60;94397.38;5035325;28;20033;-72
2023/05/16 02:00:53;;;;;;;11.88;10.57;;;;;;;13.17;75.89;94396.31;5018690;28;20037;-72
2023/05/16 02:03:18;;;;;;;14.30;10.50;;;;;;;13.13;75.81;94395.00;5038807;28;20040;-72
2023/05/16 02:05:44;;;;;;;11.55;9.88;;;;;;;13.07;76.02;94400.84;5028216;28;20060;-71
2023/05/16 02:08:09;;;;;;;12.23;10.45;;;;;;;13.08;75.62;94390.25;5015109;28;20062;-72
2023/05/16 02:10:35;;;;;;;15.73;10.55;;;;;;;13.13;75.58;94395.00;5027477;28;20048;-72
2023/05/16 02:13:00;;;;;;;12.40;10.45;;;;;;;13.05;75.87;94377.50;5047051;28;20476;-72
2023/05/16 02:15:26;;;;;;;13.98;9.68;;;;;;;13.11;76.31;94397.75;5037206;28;20041;-72
2023/05/16 02:17:51;;;;;;;12.82;10.15;;;;;;;13.04;76.64;94388.91;5034446;28;20083;-72
2023/05/16 02:20:17;;;;;;;12.50;9.88;;;;;;;12.88;77.12;94392.22;5034747;28;20039;-72
2023/05/16 02:22:43;;;;;;;12.20;10.27;;;;;;;12.94;77.13;94391.59;5031311;28;20034;-72
2023/05/16 02:25:08;;;;;;;13.57;10.80;;;;;;;12.78;77.06;94359.38;5048945;28;20083;-71
2023/05/16 02:27:34;;;;;;;11.93;10.02;;;;;;;12.88;76.89;94392.22;5036549;28;20117;-72
2023/05/16 02:30:00;;;;;;;13.15;10.30;;;;;;;12.81;76.33;94372.13;5031456;28;20109;-72
2023/05/16 02:32:25;;;;;;;12.45;10.57;;;;;;;12.87;76.31;94395.81;5049504;28;20037;-72
2023/05/16 02:34:51;;;;;;;12.07;9.65;;;;;;;12.90;76.64;94390.28;5051387;28;20033;-72
2023/05/16 02:37:16;;;;;;;11.40;9.30;;;;;;;12.85;76.99;94381.28;5018029;28;20056;-72
2023/05/16 02:39:42;;;;;;;11.65;9.50;;;;;;;13.02;76.11;94395.25;5034673;28;20395;-72
2023/05/16 02:42:07;;;;;;;11.10;9.00;;;;;;;12.87;76.70;94395.81;5017895;28;20048;-72
2023/05/16 02:44:33;;;;;;;13.18;9.27;;;;;;;12.80;77.13;94373.91;5046286;28;20037;-72
2023/05/16 02:46:58;;;;;;;13.32;9.35;;;;;;;12.91;77.15;94386.69;5014526;28;20025;-72
2023/05/16 02:49:24;;;;;;;12.27;9.93;;;;;;;12.82;77.28;94389.41;5030974;28;20484;-72
2023/05/16 02:51:49;;;;;;;12.48;8.80;;;;;;;12.75;77.47;94383.97;5039941;28;20033;-72
2023/05/16 02:54:15;;;;;;;12.60;9.63;;;;;;;12.56;77.75;94365.88;5041048;28;20037;-72
2023/05/16 02:56:40;;;;;;;12.23;9.63;;;;;;;12.61;78.11;94374.06;5050713;28;20057;-72
2023/05/16 02:59:06;;;;;;;11.63;9.18;;;;;;;12.61;78.57;94369.66;5045196;28;20033;-72
2023/05/16 03:01:32;;;;;;;15.18;11.00;;;;;;;12.55;77.71;94364.25;5030824;28;20028;-71
2023/05/16 03:03:57;;;;;;;14.10;10.75;;;;;;;12.67;77.11;94363.03;5041880;28;20040;-72
2023/05/16 03:06:22;;;;;;;15.80;10.50;;;;;;;12.75;76.80;94382.16;5043700;28;20029;-72
2023/05/16 03:08:48;;;;;;;12.05;9.98;;;;;;;12.75;76.71;94363.91;5031058;28;20049;-72
2023/05/16 03:11:14;;;;;;;11.27;9.13;;;;;;;12.84;77.01;94380.47;5027479;28;20032;-72
2023/05/16 03:13:40;;;;;;;12.57;9.65;;;;;;;12.83;76.75;94384.03;5048545;28;20104;-72
2023/05/16 03:16:06;;;;;;;10.48;8.80;;;;;;;12.75;77.17;94371.75;5046506;28;20128;-72
2023/05/16 03:18:32;;;;;;;10.88;9.55;;;;;;;12.76;77.14;94390.81;5029978;28;20100;-72
2023/05/16 03:20:57;;;;;;;11.95;9.50;;;;;;;12.83;77.28;94388.44;5028475;28;20502;-72
2023/05/16 03:23:23;;;;;;;11.80;9.52;;;;;;;12.89;77.00;94378.19;5048057;28;20029;-72
2023/05/16 03:25:48;;;;;;;10.25;9.15;;;;;;;12.81;77.52;94380.75;5043360;28;20048;-72
2023/05/16 03:28:15;;;;;;;13.20;9.95;;;;;;;12.92;77.80;94385.72;5046791;28;20052;-72
2023/05/16 03:30:41;;;;;;;11.00;9.35;;;;;;;12.87;77.65;94385.38;5028028;28;20052;-72
2023/05/16 03:33:06;;;;;;;10.50;9.13;;;;;;;12.85;78.12;94379.50;5047054;28;20053;-72
2023/05/16 03:35:32;;;;;;;11.82;9.73;;;;;;;12.80;78.28;94386.13;5042896;28;20033;-73
2023/05/16 03:37:57;;;;;;;11.25;10.15;;;;;;;12.77;78.09;94383.81;5020326;28;20033;-72
2023/05/16 03:40:23;;;;;;;12.70;9.60;;;;;;;12.79;77.84;94356.63;5047082;28;20503;-72
2023/05/16 03:42:48;;;;;;;13.75;12.18;;;;;;;12.74;77.48;94369.31;5010514;28;20033;-72
2023/05/16 03:45:14;;;;;;;13.88;11.32;;;;;;;12.79;76.62;94367.06;5044467;28;20033;-72
2023/05/16 03:47:39;;;;;;;11.40;10.20;;;;;;;12.87;77.33;94354.09;5043015;28;20418;-72
2023/05/16 03:50:06;;;;;;;12.43;11.13;;;;;;;13.02;77.07;94385.63;5029390;28;20028;-71
2023/05/16 03:52:32;;;;;;;16.55;11.75;;;;;;;13.04;74.91;94364.63;5041815;28;20044;-72
2023/05/16 03:54:57;;;;;;;11.48;10.30;;;;;;;13.15;75.69;94385.25;5046136;28;20139;-72
2023/05/16 03:57:23;;;;;;;11.70;10.05;;;;;;;13.12;75.51;94381.16;5012888;28;20382;-72
2023/05/16 03:59:48;;;;;;;15.25;12.57;;;;;;;13.24;75.03;94376.50;5029506;28;20402;-72
2023/05/16 04:02:13;;;;;;;12.63;11.32;;;;;;;13.20;74.89;94380.38;5044474;28;20123;-72
2023/05/16 04:04:39;;;;;;;12.38;11.15;;;;;;;13.30;74.81;94383.72;5047371;28;20059;-72
2023/05/16 04:07:05;;;;;;;12.30;10.90;;;;;;;13.24;74.67;94378.28;5044180;28;20032;-72
2023/05/16 04:09:30;;;;;;;12.80;11.40;;;;;;;13.41;74.26;94380.84;5045211;28;20044;-72
2023/05/16 04:11:56;;;;;;;12.20;10.75;;;;;;;13.44;74.08;94382.34;5043707;28;20037;-72
2023/05/16 04:14:24;;;;;;;14.70;11.80;;;;;;;13.35;74.12;94396.31;5046897;28;20033;-72
2023/05/16 04:16:50;;;;;;;12.75;11.40;;;;;;;13.41;74.39;94388.69;5026675;28;20072;-72
2023/05/16 04:19:15;;;;;;;15.32;11.75;;;;;;;13.54;73.19;94392.66;5045286;28;20028;-72
2023/05/16 04:21:41;;;;;;;13.27;11.23;;;;;;;13.60;73.95;94397.28;5027822;28;20037;-72
2023/05/16 04:24:07;;;;;;;11.60;10.40;;;;;;;13.54;75.06;94400.47;5028921;28;20037;-72
2023/05/16 04:26:32;;;;;;;12.95;9.85;;;;;;;13.51;75.82;94400.78;5026828;28;20048;-72
2023/05/16 04:28:58;;;;;;;11.98;10.77;;;;;;;13.50;75.88;94386.13;5047077;28;20033;-72
2023/05/16 04:31:24;;;;;;;13.27;10.68;;;;;;;13.50;76.26;94392.16;5040753;28;20442;-72
2023/05/16 04:33:50;;;;;;;11.98;10.73;;;;;;;13.43;74.50;94364.22;5029235;28;20025;-72
2023/05/16 04:36:15;;;;;;;13.25;11.32;;;;;;;13.53;75.42;94370.16;5045061;28;20033;-72
2023/05/16 04:38:41;;;;;;;12.07;10.77;;;;;;;13.54;75.49;94377.00;5026170;28;20049;-72
2023/05/16 04:41:07;;;;;;;15.05;11.77;;;;;;;13.28;75.39;94345.72;5044755;28;20029;-72
2023/05/16 04:43:32;;;;;;;13.88;11.55;;;;;;;13.47;75.24;94365.56;5043645;28;20040;-72
2023/05/16 04:45:58;;;;;;;13.02;11.02;;;;;;;13.56;75.46;94388.91;5012183;28;20498;-72
2023/05/16 04:48:23;;;;;;;12.20;10.27;;;;;;;13.54;73.83;94372.63;5049112;28;20040;-71
2023/05/16 04:50:50;;;;;;;12.63;10.48;;;;;;;13.68;73.29;94379.06;5031584;28;20036;-72
2023/05/16 04:53:15;;;;;;;13.50;9.60;;;;;;;13.72;72.33;94380.34;5051154;28;20032;-72
2023/05/16 04:55:41;;;;;;;11.50;9.32;;;;;;;13.58;72.30;94360.88;5016132;28;20506;-72
2023/05/16 04:58:07;;;;;;;11.07;9.70;;;;;;;13.76;72.06;94376.47;5049396;28;20032;-72
2023/05/16 05:00:32;;;;;;;12.45;10.88;;;;;;;13.83;72.54;94371.44;5045477;28;20152;-72
2023/05/16 05:02:58;;;;;;;13.05;10.38;;;;;;;13.76;72.08;94371.25;5048138;28;20120;-72
2023/05/16 05:05:23;;;;;;;11.07;9.68;;;;;;;13.82;71.93;94373.22;5050065;28;20510;-72
2023/05/16 05:07:49;;;;;;;15.95;9.85;;;;;;;13.83;72.02;94382.69;5029122;28;20474;-72
2023/05/16 05:10:14;;;;;;;13.65;9.93;;;;;;;13.93;72.13;94386.97;5033992;28;20061;-72
2023/05/16 05:12:40;;;;;;;10.40;8.80;;;;;;;13.94;72.69;94388.63;5035928;28;20076;-71
2023/05/16 05:15:06;;;;;;;13.07;9.68;;;;;;;13.70;72.18;94387.53;5032180;28;20065;-71
2023/05/16 05:17:32;;;;;;;11.85;9.75;;;;;;;13.77;72.24;94372.06;5043997;28;20040;-71
2023/05/16 05:19:57;;;;;;;11.88;10.05;;;;;;;13.88;72.13;94384.84;5049103;28;20037;-71
2023/05/16 05:22:22;;;;;;;12.43;10.65;;;;;;;13.78;72.46;94384.94;5046694;28;20034;-72
2023/05/16 05:24:48;;;;;;;13.75;9.90;;;;;;;13.81;72.04;94379.41;5030690;28;20025;-72
2023/05/16 05:27:13;;;;;;;13.48;9.90;;;;;;;13.90;71.85;94390.72;5023915;28;20033;-71
2023/05/16 05:29:39;;;;;;;10.63;8.88;;;;;;;13.96;71.78;94389.28;5050491;28;20025;-72
2023/05/16 05:32:05;;;;;;;12.10;9.18;;;;;;;13.90;71.77;94369.84;5022382;28;20380;-71
2023/05/16 05:34:30;;;;;;;12.27;9.10;;;;;;;13.91;71.44;94368.84;5013960;28;20033;-72
2023/05/16 05:36:56;;;;;;;11.55;9.38;;;;;;;14.00;71.42;94375.72;5013738;28;20033;-72
2023/05/16 05:39:21;;;;;;;13.80;9.25;;;;;;;14.04;71.56;94361.41;5030296;28;20472;-71
2023/05/16 05:41:47;;;;;;;10.80;9.05;;;;;;;13.97;70.84;94356.97;4997615;28;20415;-71
2023/05/16 05:44:12;;;;;;;9.00;7.93;;;;;;;14.07;70.52;94381.16;5030234;28;20034;-72
2023/05/16 05:46:38;;;;;;;12.80;9.13;;;;;;;14.10;70.39;94359.94;5032102;28;20048;-71
2023/05/16 05:49:04;;;;;;;8.82;7.93;;;;;;;14.16;71.00;94371.53;5015855;28;20037;-71
2023/05/16 05:51:29;;;;;;;10.13;8.75;;;;;;;14.08;72.09;94364.50;5032007;28;20104;-72
2023/05/16 05:53:55;;;;;;;10.80;9.30;;;;;;;14.07;71.62;94368.09;5032825;28;20026;-71
2023/05/16 05:56:20;;;;;;;12.55;8.95;;;;;;;14.09;72.09;94366.13;5032357;28;20033;-71
2023/05/16 05:58:46;;;;;;;10.65;9.07;;;;;;;14.13;71.10;94361.41;5044347;28;20052;-72
2023/05/16 06:01:11;;;;;;;11.40;8.95;;;;;;;14.03;70.91;94353.72;5034846;28;20047;-72
2023/05/16 06:03:37;;;;;;;11.40;9.32;;;;;;;14.14;71.64;94353.41;5031747;28;20525;-71
2023/05/16 06:06:03;;;;;;;10.55;8.55;;;;;;;14.20;71.08;94365.81;5035075;28;20079;-71
2023/05/16 06:08:28;;;;;;;10.77;8.88;;;;;;;14.20;71.08;94362.41;5027853;28;20060;-72
2023/05/16 06:10:54;;;;;;;11.00;8.98;;;;;;;14.31;70.77;94375.16;5031549;28;20045;-72
2023/05/16 06:13:20;;;;;;;9.68;8.68;;;;;;;14.01;70.44;94355.66;5029605;28;20475;-72
2023/05/16 06:15:50;;;;;;;10.77;8.95;;;;;;;14.16;70.21;94358.47;5011808;28;20427;-72
2023/05/16 06:18:16;;;;;;;10.73;9.17;;;;;;;14.19;70.83;94363.38;5031481;28;20029;-72
2023/05/16 06:20:41;;;;;;;13.52;9.10;;;;;;;14.25;70.49;94381.84;5031512;28;20690;-72
2023/05/16 06:23:06;;;;;;;9.95;8.88;;;;;;;14.20;70.14;94373.66;5033232;28;20021;-72
2023/05/16 06:25:32;;;;;;;10.80;9.15;;;;;;;14.35;70.03;94367.81;5045923;28;20079;-72
2023/05/16 06:27:57;;;;;;;14.48;8.82;;;;;;;14.26;70.20;94364.38;5059655;28;20033;-72
2023/05/16 06:30:23;;;;;;;11.77;9.13;;;;;;;14.34;70.16;94347.91;5064626;28;20044;-72
2023/05/16 06:32:48;;;;;;;10.55;9.32;;;;;;;14.49;70.22;94354.13;5014711;28;20476;-72
2023/05/16 06:35:14;;;;;;;10.35;8.43;;;;;;;14.40;69.83;94355.09;5031809;28;20520;-72
2023/05/16 06:37:39;;;;;;;10.32;8.73;;;;;;;14.43;69.23;94362.59;5044841;28;20215;-72
2023/05/16 06:40:06;;;;;;;11.10;7.95;;;;;;;14.66;69.17;94376.72;5034642;28;20051;-72
2023/05/16 06:42:31;;;;;;;10.85;7.95;;;;;;;14.48;69.34;94376.81;5031176;28;20033;-72
2023/05/16 06:44:57;;;;;;;12.70;8.65;;;;;;;14.62;68.95;94371.97;5031008;28;20045;-72
2023/05/16 06:47:23;;;;;;;9.88;7.95;;;;;;;14.48;69.25;94355.09;5030986;28;20026;-72
2023/05/16 06:49:49;;;;;;;9.80;8.05;;;;;;;14.53;69.25;94355.47;5030789;28;20034;-72
2023/05/16 06:52:15;;;;;;;10.73;8.15;;;;;;;14.58;69.41;94355.81;5014608;28;20026;-73
2023/05/16 06:54:40;;;;;;;10.98;8.38;;;;;;;14.60;69.78;94343.38;5031101;28;20040;-72
2023/05/16 06:57:07;;;;;;;9.73;7.65;;;;;;;14.69;69.03;94354.66;5030913;28;20037;-72
2023/05/16 06:59:33;;;;;;;14.00;8.32;;;;;;;14.66;69.22;94342.72;5031964;28;20049;-72
2023/05/16 07:01:59;;;;;;;10.38;8.60;;;;;;;14.64;69.15;94330.81;5014420;28;20033;-72
2023/05/16 07:04:25;;;;;;;9.90;7.72;;;;;;;14.85;68.45;94356.44;5030949;28;20537;-72
2023/05/16 07:06:50;;;;;;;12.50;8.10;;;;;;;14.80;68.42;94359.56;5031859;28;20037;-72
2023/05/16 07:09:16;;;;;;;9.70;8.02;;;;;;;14.95;68.49;94344.03;5031257;28;20076;-73
2023/05/16 07:11:41;;;;;;;9.88;8.20;;;;;;;14.87;69.25;94347.44;5030017;28;20029;-72
2023/05/16 07:14:07;;;;;;;10.25;7.88;;;;;;;14.87;68.68;94333.56;5031680;28;20029;-73
2023/05/16 07:16:32;;;;;;;9.88;8.55;;;;;;;14.82;68.48;94325.38;5030339;28;20037;-72
2023/05/16 07:18:58;;;;;;;12.40;8.82;;;;;;;14.83;68.92;94306.94;5030576;28;20038;-72
2023/05/16 07:21:24;;;;;;;11.75;9.02;;;;;;;14.71;70.21;94303.03;5030484;28;20021;-72
2023/05/16 07:23:49;;;;;;;12.18;8.55;;;;;;;14.81;69.02;94315.94;5046972;28;20510;-73
2023/05/16 07:26:15;;;;;;;10.35;8.88;;;;;;;14.80;69.50;94322.16;5030318;28;20459;-74
2023/05/16 07:28:40;;;;;;;10.80;9.70;;;;;;;14.91;69.75;94316.59;5030256;28;20041;-74
2023/05/16 07:31:07;;;;;;;12.02;8.57;;;;;;;15.02;68.80;94323.28;5030291;28;20037;-74
2023/05/16 07:33:32;;;;;;;11.95;9.63;;;;;;;14.83;69.00;94290.44;4997668;28;20041;-74
2023/05/16 07:35:58;;;;;;;11.18;8.90;;;;;;;15.07;69.77;94320.94;5031377;28;20412;-74
2023/05/16 07:38:23;;;;;;;10.93;7.75;;;;;;;15.19;69.83;94311.78;5030192;28;20488;-74
2023/05/16 07:40:49;;;;;;;9.88;8.48;;;;;;;15.09;70.58;94317.19;5031289;28;20396;-74
2023/05/16 07:43:14;;;;;;;12.07;8.73;;;;;;;15.10;68.63;94331.06;5029859;28;20037;-73
2023/05/16 07:45:40;;;;;;;11.40;8.27;;;;;;;15.22;68.30;94336.81;5029976;28;20262;-74
2023/05/16 07:48:05;;;;;;;10.80;8.43;;;;;;;15.12;67.92;94321.28;5029985;28;20046;-74
2023/05/16 07:50:31;;;;;;;12.43;9.15;;;;;;;15.16;67.86;94296.44;5031111;28;20029;-74
2023/05/16 07:52:56;;;;;;;9.77;8.15;;;;;;;15.20;67.28;94303.75;5029802;28;20024;-74
2023/05/16 07:55:22;;;;;;;11.63;8.50;;;;;;;15.28;68.16;94320.44;5046347;28;20045;-73
2023/05/16 07:57:48;;;;;;;14.43;8.80;;;;;;;15.39;67.63;94322.69;5030876;28;20033;-74
2023/05/16 08:00:14;;;;;;;12.13;8.63;;;;;;;15.44;67.86;94314.34;5029786;28;20021;-74
2023/05/16 08:02:40;;;;;;;14.38;9.43;;;;;;;15.53;67.75;94308.91;5029764;28;20212;-74
2023/05/16 08:05:06;;;;;;;10.65;8.32;;;;;;;15.54;66.84;94294.00;5031265;28;20040;-74
2023/05/16 08:07:32;;;;;;;11.90;8.75;;;;;;;15.61;66.13;94285.31;5030929;28;20056;-74
2023/05/16 08:09:57;;;;;;;11.68;8.80;;;;;;;15.72;66.14;94304.28;5029483;28;20061;-74
2023/05/16 08:12:23;;;;;;;11.00;9.80;;;;;;;15.86;65.58;94293.06;5030868;28;20025;-74
2023/05/16 08:14:48;;;;;;;13.10;9.10;;;;;;;15.94;65.50;94287.78;5013388;28;20041;-74
2023/05/16 08:17:14;;;;;;;9.35;7.88;;;;;;;16.04;65.53;94293.59;5029549;28;20021;-74
2023/05/16 08:19:40;;;;;;;9.25;8.07;;;;;;;16.17;65.04;94294.88;5029726;28;20030;-74
2023/05/16 08:22:06;;;;;;;11.52;9.18;;;;;;;16.13;66.00;94277.84;5029312;28;20032;-74
2023/05/16 08:24:31;;;;;;;8.63;7.63;;;;;;;16.31;64.78;94294.91;5013346;28;20033;-74
2023/05/16 08:26:56;;;;;;;12.85;8.20;;;;;;;16.34;64.86;94290.31;5029518;28;20491;-74
2023/05/16 08:29:22;;;;;;;10.55;7.82;;;;;;;16.43;63.80;94284.84;5029263;28;20052;-74
2023/05/16 08:31:47;;;;;;;9.35;7.68;;;;;;;16.42;63.73;94283.22;5029418;28;20026;-74
2023/05/16 08:34:13;;;;;;;12.05;8.52;;;;;;;16.49;63.92;94278.91;5029515;28;20033;-74
2023/05/16 08:36:38;;;;;;;9.80;7.65;;;;;;;16.66;63.14;94289.25;5013081;28;20044;-74
2023/05/16 08:39:04;;;;;;;25.27;19.52;;;;;;;16.56;62.28;94268.53;5029585;28;20037;-74
2023/05/16 08:41:29;;;;;;;14.32;9.45;;;;;;;16.59;61.77;94259.50;5045890;28;20484;-74
2023/05/16 08:43:55;;;;;;;10.60;6.80;;;;;;;16.86;61.27;94279.13;5029460;28;20044;-74
2023/05/16 08:46:21;;;;;;;14.77;8.95;;;;;;;16.74;62.48;94273.44;5045837;28;20057;-74
2023/05/16 08:48:50;;;;;;;9.70;7.60;;;;;;;16.78;60.99;94259.03;5029374;28;20414;-74
2023/05/16 08:51:16;;;;;;;11.18;7.20;;;;;;;16.97;61.59;94263.75;5029228;28;20030;-74
2023/05/16 08:53:44;;;;;;;11.18;8.20;;;;;;;17.06;61.19;94256.59;5029310;28;20040;-74
2023/05/16 08:56:11;;;;;;;11.07;7.55;;;;;;;17.16;60.59;94264.19;5030429;28;20063;-74
2023/05/16 08:58:37;;;;;;;10.00;6.75;;;;;;;17.28;60.38;94275.91;5029246;28;20083;-74
2023/05/16 09:01:07;;;;;;;11.77;7.63;;;;;;;17.38;60.02;94284.31;5029215;28;20026;-74
2023/05/16 09:03:36;;;;;;;8.98;6.53;;;;;;;17.53;58.16;94270.38;5029305;28;20048;-74
2023/05/16 09:06:05;;;;;;;12.57;7.00;;;;;;;17.59;59.23;94270.44;5030405;28;20091;-74
2023/05/16 09:08:31;;;;;;;11.43;6.88;;;;;;;17.69;58.73;94271.97;5029071;28;20535;-74
2023/05/16 09:10:56;;;;;;;10.60;7.07;;;;;;;17.79;59.26;94275.97;5045420;28;20030;-74
2023/05/16 09:13:22;;;;;;;10.30;6.55;;;;;;;17.83;57.92;94273.81;5029022;28;20037;-74
2023/05/16 09:16:07;;;;;;;11.15;6.40;;;;;;;17.86;57.70;94265.56;5012716;28;20084;-74
2023/05/16 09:18:34;;;;;;;8.18;6.35;;;;;;;17.93;57.42;94261.16;5028955;28;20033;-74
2023/05/16 09:20:59;;;;;;;7.90;6.53;;;;;;;17.95;59.44;94266.25;5012640;28;20029;-74
2023/05/16 09:23:25;;;;;;;8.85;6.20;;;;;;;18.01;60.18;94262.88;5030339;28;20033;-74
2023/05/16 09:25:52;;;;;;;8.57;6.90;;;;;;;18.02;58.69;94261.88;5029031;28;20098;-74
2023/05/16 09:28:17;;;;;;;9.73;6.53;;;;;;;17.98;57.55;94258.81;5028973;28;20523;-74
2023/05/16 09:30:45;;;;;;;10.30;7.07;;;;;;;18.05;57.46;94278.09;5028927;28;20109;-74
2023/05/16 09:33:10;;;;;;;8.50;6.57;;;;;;;18.00;57.16;94256.81;5012888;28;20048;-74
2023/05/16 09:35:36;;;;;;;9.43;6.38;;;;;;;18.04;57.64;94278.28;5032464;28;20017;-74
2023/05/16 09:38:01;;;;;;;8.90;7.18;;;;;;;18.01;57.64;94268.13;5033607;28;20491;-74
2023/05/16 09:40:27;;;;;;;10.25;6.60;;;;;;;18.07;57.24;94283.16;5032439;28;20068;-74
2023/05/16 09:43:15;;;;;;;10.77;6.97;;;;;;;17.99;57.04;94283.25;5033449;28;20025;-74
2023/05/16 09:45:44;;;;;;;9.25;6.57;;;;;;;17.86;57.05;94268.19;5033530;28;20491;-74
2023/05/16 09:48:13;;;;;;;10.23;6.65;;;;;;;17.72;57.16;94251.41;5015776;28;20140;-74
2023/05/16 09:50:38;;;;;;;11.00;7.20;;;;;;;17.75;58.82;94237.09;5032110;28;20124;-74
2023/05/16 09:53:05;;;;;;;8.65;6.75;;;;;;;17.76;59.09;94265.00;5032121;28;20104;-74
2023/05/16 09:55:31;;;;;;;8.32;6.60;;;;;;;17.81;58.67;94247.69;5032137;28;20031;-74
2023/05/16 09:57:56;;;;;;;9.30;6.82;;;;;;;17.76;60.37;94243.97;5015518;28;20100;-74
2023/05/16 10:00:22;;;;;;;14.38;7.10;;;;;;;17.66;58.71;94260.00;5032060;28;20033;-74
2023/05/16 10:02:47;;;;;;;10.65;6.80;;;;;;;17.84;58.51;94249.97;5015172;28;20028;-74
2023/05/16 10:05:13;;;;;;;12.48;7.28;;;;;;;17.93;58.38;94250.66;5031848;28;20026;-74
2023/05/16 10:07:39;;;;;;;11.52;7.13;;;;;;;18.02;58.27;94248.72;5032112;28;20545;-74
2023/05/16 10:10:06;;;;;;;10.73;7.03;;;;;;;17.98;58.73;94253.53;5015044;28;20053;-74
2023/05/16 10:12:32;;;;;;;8.48;7.18;;;;;;;17.92;58.74;94253.50;4999061;28;20419;-74
2023/05/16 10:14:59;;;;;;;10.63;7.60;;;;;;;18.11;58.45;94242.38;5031929;28;20034;-74
2023/05/16 10:17:26;;;;;;;8.45;7.53;;;;;;;18.04;59.29;94252.78;5031679;28;20108;-74
2023/05/16 10:19:51;;;;;;;9.57;7.20;;;;;;;18.07;58.24;94256.88;5031841;28;20472;-74
2023/05/16 10:22:17;;;;;;;10.68;7.07;;;;;;;18.26;58.25;94252.81;5031596;28;20104;-74
2023/05/16 10:24:45;;;;;;;10.88;7.57;;;;;;;18.16;57.83;94218.94;5015058;28;20550;-74
2023/05/16 10:27:11;;;;;;;9.32;7.57;;;;;;;18.32;57.47;94236.28;5031468;28;20498;-74
2023/05/16 10:29:37;;;;;;;13.95;7.68;;;;;;;18.27;57.30;94231.59;5031567;28;20046;-74
2023/05/16 10:32:02;;;;;;;10.30;7.22;;;;;;;18.31;57.07;94243.38;5031426;28;20064;-74
2023/05/16 10:34:28;;;;;;;8.98;7.55;;;;;;;18.43;57.19;94227.91;5032979;28;20030;-74
2023/05/16 10:36:53;;;;;;;11.40;7.30;;;;;;;18.39;57.35;94233.75;5031285;28;20487;-74
2023/05/16 10:39:19;;;;;;;9.65;7.90;;;;;;;18.28;58.28;94232.44;5031458;28;20037;-74
2023/05/16 10:41:44;;;;;;;9.13;7.45;;;;;;;18.31;58.38;94221.53;5031217;28;20034;-74
2023/05/16 10:44:16;;;;;;;10.25;7.18;;;;;;;18.37;58.73;94198.94;5031225;28;20044;-74
2023/05/16 10:46:42;;;;;;;10.50;7.35;;;;;;;18.45;57.94;94190.91;5031112;28;20030;-74
2023/05/16 10:49:23;;;;;;;9.93;7.15;;;;;;;18.75;59.37;94200.25;5014823;28;20067;-74
2023/05/16 10:52:08;;;;;;;9.80;7.05;;;;;;;18.63;57.76;94198.31;5014604;28;20032;-74
2023/05/16 10:54:41;;;;;;;10.73;8.00;;;;;;;18.58;57.42;94201.50;5031115;28;20033;-74
2023/05/16 10:57:16;;;;;;;9.07;7.25;;;;;;;18.68;56.57;94198.56;5030910;28;20474;-74
2023/05/16 10:59:49;;;;;;;12.95;7.15;;;;;;;18.79;56.21;94200.69;5031142;28;20041;-75
2023/05/16 11:02:21;;;;;;;15.18;7.55;;;;;;;18.73;55.53;94198.78;5032272;28;20040;-74
2023/05/16 11:04:50;;;;;;;13.38;7.15;;;;;;;18.52;57.76;94200.44;5032349;28;20037;-74
2023/05/16 11:07:17;;;;;;;9.80;6.65;;;;;;;18.59;57.46;94187.38;5030694;28;20034;-74
2023/05/16 11:09:44;;;;;;;9.60;7.00;;;;;;;18.73;56.88;94199.59;5030469;28;20063;-74
2023/05/16 11:12:09;;;;;;;8.40;6.20;;;;;;;18.44;56.86;94182.22;5030615;28;20165;-74
2023/05/16 11:14:37;;;;;;;8.52;7.05;;;;;;;18.67;56.72;94199.56;5032182;28;20038;-74
2023/05/16 11:17:10;;;;;;;10.85;6.53;;;;;;;18.81;56.86;94211.03;5030586;28;20037;-74
2023/05/16 11:19:47;;;;;;;7.80;6.57;;;;;;;19.01;57.60;94201.44;5030617;28;20076;-74
2023/05/16 11:22:19;;;;;;;11.00;6.80;;;;;;;19.07;57.24;94203.28;5030467;28;20030;-74